Time;durP1;ratioP1;P1;durP2;ratioP2;P2;SDS_P1;SDS_P2;PMS_P1;PMS_P2;Temp;Humidity;BMP_temperature;BMP_pressure;BME280_temperature;BME280_humidity;BME280_pressure;Samples;Min_cycle;Max_cycle;Signal;HPM_P1;HPM_P2
2023/10/26 00:03:30;;;;;;;8.67;4.00;;;;;;;19.19;63.87;95072.03;10345278;28;20030;-28
2023/10/26 00:08:31;;;;;;;8.57;3.70;;;;;;;19.19;63.75;95070.31;10334858;28;20056;-28
2023/10/26 00:13:31;;;;;;;8.27;3.57;;;;;;;19.17;63.73;95066.13;10355614;28;20049;-29
2023/10/26 00:18:32;;;;;;;6.65;4.07;;;;;;;19.20;63.59;95058.47;10344873;28;20040;-28
2023/10/26 00:23:32;;;;;;;7.43;3.37;;;;;;;19.16;63.72;95055.16;10343524;28;20042;-28
2023/10/26 00:28:32;;;;;;;8.13;3.93;;;;;;;19.16;63.72;95049.25;10338313;28;20068;-28
2023/10/26 00:33:33;;;;;;;6.70;3.40;;;;;;;19.16;63.66;95047.53;10350475;28;20050;-29
2023/10/26 00:38:33;;;;;;;7.03;3.40;;;;;;;19.16;63.60;95049.25;10336328;28;20027;-28
2023/10/26 00:43:33;;;;;;;5.37;3.27;;;;;;;19.14;63.62;95038.31;10342355;28;20041;-28
2023/10/26 00:48:34;;;;;;;10.10;3.10;;;;;;;19.15;63.67;95037.44;10337540;28;20289;-28
2023/10/26 00:53:35;;;;;;;7.57;3.27;;;;;;;19.15;63.51;95038.28;10353243;28;20037;-28
2023/10/26 00:58:36;;;;;;;6.60;3.42;;;;;;;19.14;63.68;95043.38;10353229;28;20046;-28
2023/10/26 01:03:37;;;;;;;8.02;3.28;;;;;;;19.13;63.68;95055.25;10329658;28;20053;-29
2023/10/26 01:08:38;;;;;;;5.68;3.13;;;;;;;19.13;63.53;95045.09;10349268;28;20034;-29
2023/10/26 01:13:38;;;;;;;4.45;2.88;;;;;;;19.12;63.64;95035.00;10342049;28;20037;-29
2023/10/26 01:18:39;;;;;;;8.25;3.22;;;;;;;19.11;64.21;95046.00;10331273;28;20041;-28
2023/10/26 01:23:40;;;;;;;6.47;3.70;;;;;;;19.11;63.45;95046.00;10337135;28;20523;-28
2023/10/26 01:28:40;;;;;;;6.07;2.77;;;;;;;19.10;63.45;95039.28;10327435;28;20058;-30
2023/10/26 01:33:40;;;;;;;8.90;3.47;;;;;;;19.10;63.49;95029.94;10336268;28;20408;-28
2023/10/26 01:38:41;;;;;;;5.27;3.10;;;;;;;19.11;63.20;95018.97;10337083;28;20093;-28
2023/10/26 01:43:41;;;;;;;6.27;3.20;;;;;;;19.10;63.26;95024.88;10338359;28;20523;-29
2023/10/26 01:48:41;;;;;;;5.23;2.83;;;;;;;19.12;63.24;95022.31;10338277;28;20038;-29
2023/10/26 01:53:42;;;;;;;6.13;3.30;;;;;;;19.11;63.31;95016.41;10345656;28;20045;-28
2023/10/26 01:58:45;;;;;;;4.40;2.70;;;;;;;19.07;63.18;94998.78;10346359;28;20505;-29
2023/10/26 02:03:45;;;;;;;5.65;2.58;;;;;;;19.10;63.11;94986.03;10344675;28;20042;-28
2023/10/26 02:08:46;;;;;;;4.37;2.50;;;;;;;19.10;63.26;94994.44;10346297;28;20088;-28
2023/10/26 02:13:46;;;;;;;3.90;2.47;;;;;;;19.09;63.33;94981.81;10345063;28;20034;-29
2023/10/26 02:18:47;;;;;;;6.23;3.13;;;;;;;19.08;63.40;94980.16;10344751;28;20109;-28
2023/10/26 02:23:47;;;;;;;3.57;2.60;;;;;;;19.05;63.36;94967.56;10345275;28;20042;-28
2023/10/26 02:28:47;;;;;;;5.95;2.85;;;;;;;19.05;63.45;94982.78;10348497;28;20294;-28
2023/10/26 02:33:49;;;;;;;6.75;2.75;;;;;;;19.06;63.43;94979.38;10346688;28;20030;-29
2023/10/26 02:38:49;;;;;;;4.70;2.70;;;;;;;19.05;63.45;94977.72;10342914;28;20034;-29
2023/10/26 02:43:49;;;;;;;4.53;2.73;;;;;;;19.04;63.18;94976.06;10346658;28;20520;-28
2023/10/26 02:48:50;;;;;;;3.90;2.00;;;;;;;19.04;63.18;94963.38;10344960;28;20080;-28
2023/10/26 02:53:53;;;;;;;6.07;2.70;;;;;;;19.09;63.11;94971.69;10350958;28;20042;-28
2023/10/26 02:58:54;;;;;;;4.03;2.63;;;;;;;19.09;63.09;94979.28;10347264;28;20041;-29
2023/10/26 03:03:54;;;;;;;5.47;2.90;;;;;;;19.08;63.03;94975.09;10346414;28;20034;-29
2023/10/26 03:08:54;;;;;;;3.33;2.20;;;;;;;19.09;62.97;94981.81;10347077;28;20460;-28
2023/10/26 03:13:55;;;;;;;5.13;2.50;;;;;;;19.09;62.89;94977.56;10347031;28;20404;-28
2023/10/26 03:18:55;;;;;;;5.43;2.87;;;;;;;19.09;62.86;94977.56;10350895;28;20405;-28
2023/10/26 03:23:55;;;;;;;4.30;2.47;;;;;;;19.09;63.00;94976.75;10347392;28;20034;-28
2023/10/26 03:28:56;;;;;;;3.30;2.43;;;;;;;19.03;62.94;94977.78;10353942;28;20029;-28
2023/10/26 03:33:56;;;;;;;6.67;2.53;;;;;;;19.08;62.87;94978.44;10330525;28;20046;-28
2023/10/26 03:38:57;;;;;;;4.15;2.15;;;;;;;19.07;62.90;94966.66;10338243;28;20299;-28
2023/10/26 03:43:57;;;;;;;4.55;2.58;;;;;;;19.09;62.86;94966.63;10352168;28;20459;-29
2023/10/26 03:48:58;;;;;;;5.63;2.50;;;;;;;19.13;62.71;94970.69;10348138;28;20290;-28
2023/10/26 03:53:58;;;;;;;3.90;2.13;;;;;;;19.17;62.36;94969.75;10348191;28;20709;-27
2023/10/26 03:58:58;;;;;;;3.67;2.47;;;;;;;19.21;62.00;94961.19;10342094;28;20297;-28
2023/10/26 04:03:59;;;;;;;4.07;2.10;;;;;;;19.21;62.35;94953.56;10351778;28;20045;-28
2023/10/26 04:08:59;;;;;;;4.83;2.37;;;;;;;19.22;62.15;94953.53;10287560;28;20026;-28
2023/10/26 04:13:59;;;;;;;4.05;2.08;;;;;;;19.23;62.11;94946.75;10328148;28;20030;-28
2023/10/26 04:19:00;;;;;;;3.70;2.10;;;;;;;19.25;62.11;94943.28;10350744;28;20037;-28
2023/10/26 04:24:01;;;;;;;3.08;1.83;;;;;;;19.26;62.02;94939.06;10345068;28;20855;-28
2023/10/26 04:29:01;;;;;;;3.60;2.10;;;;;;;19.24;62.19;94935.75;10349023;28;20551;-29
2023/10/26 04:34:02;;;;;;;5.80;1.98;;;;;;;19.23;61.96;94934.06;10332075;28;20393;-29
2023/10/26 04:39:03;;;;;;;3.25;1.80;;;;;;;19.23;62.07;94931.50;10350914;28;20034;-28
2023/10/26 04:44:05;;;;;;;5.40;2.22;;;;;;;19.24;62.25;94928.13;10351922;28;20084;-28
2023/10/26 04:49:05;;;;;;;2.95;1.80;;;;;;;19.24;62.11;94925.59;10341333;28;20027;-28
2023/10/26 04:54:06;;;;;;;5.00;2.10;;;;;;;19.20;61.53;94918.94;10348670;28;20041;-28
2023/10/26 04:59:06;;;;;;;4.07;1.92;;;;;;;19.17;62.58;94916.47;10332591;28;20408;-28
2023/10/26 05:04:07;;;;;;;5.75;2.40;;;;;;;19.19;61.76;94895.25;10329776;28;20037;-28
2023/10/26 05:09:07;;;;;;;6.10;2.47;;;;;;;19.24;62.04;94895.16;10333055;28;20507;-28
2023/10/26 05:14:09;;;;;;;11.70;3.20;;;;;;;19.22;62.54;94881.66;10327888;28;20285;-29
2023/10/26 05:19:09;;;;;;;7.10;2.58;;;;;;;19.20;62.45;94881.72;10325857;28;20062;-29
2023/10/26 05:24:09;;;;;;;7.10;2.75;;;;;;;19.20;62.20;94874.13;10328645;28;20117;-28
2023/10/26 05:29:10;;;;;;;8.60;2.23;;;;;;;19.07;61.89;94852.50;10342878;28;20026;-28
2023/10/26 05:34:10;;;;;;;9.03;2.97;;;;;;;19.10;61.80;94857.47;10333961;28;20050;-28
2023/10/26 05:39:10;;;;;;;11.13;3.03;;;;;;;19.12;61.93;94839.69;10334154;28;20064;-29
2023/10/26 05:44:13;;;;;;;11.27;2.70;;;;;;;19.10;62.18;94842.25;10335047;28;20030;-29
2023/10/26 05:49:14;;;;;;;8.30;2.38;;;;;;;19.10;62.27;94846.53;10333509;28;20081;-28
2023/10/26 05:54:14;;;;;;;6.10;2.20;;;;;;;19.09;62.31;94822.03;10341991;28;20725;-29
2023/10/26 05:59:14;;;;;;;9.32;2.63;;;;;;;19.08;62.32;94810.25;10342490;28;20033;-28
2023/10/26 06:04:15;;;;;;;2.93;1.63;;;;;;;19.07;62.40;94811.94;10349392;28;20029;-28
2023/10/26 06:09:15;;;;;;;5.75;2.13;;;;;;;19.06;62.50;94809.44;10340189;28;20034;-28
2023/10/26 06:14:16;;;;;;;6.35;1.75;;;;;;;19.04;62.46;94821.34;10354747;28;20029;-28
2023/10/26 06:19:17;;;;;;;7.32;2.05;;;;;;;19.04;62.54;94818.81;10332043;28;20039;-29
2023/10/26 06:24:17;;;;;;;7.00;2.00;;;;;;;19.03;62.53;94824.75;10348982;28;20026;-30
2023/10/26 06:29:17;;;;;;;3.17;1.60;;;;;;;19.02;62.56;94816.31;10341411;28;20042;-29
2023/10/26 06:34:18;;;;;;;5.07;2.20;;;;;;;19.03;62.69;94824.75;10331795;28;20041;-30
2023/10/26 06:39:18;;;;;;;2.77;1.50;;;;;;;19.03;62.44;94832.38;10331214;28;20427;-30
2023/10/26 06:44:19;;;;;;;2.63;1.60;;;;;;;19.02;62.38;94833.25;10332948;28;20070;-31
2023/10/26 06:49:19;;;;;;;4.63;1.70;;;;;;;19.02;62.46;94818.03;10331187;28;20320;-29
2023/10/26 06:54:19;;;;;;;3.67;1.63;;;;;;;19.02;62.35;94807.91;10339888;28;20387;-29
2023/10/26 06:59:20;;;;;;;2.80;1.80;;;;;;;19.00;62.39;94807.13;10344681;28;20046;-28
2023/10/26 07:04:20;;;;;;;4.10;1.67;;;;;;;18.99;62.55;94806.28;10339175;28;20052;-28
2023/10/26 07:09:20;;;;;;;5.10;1.77;;;;;;;19.01;62.26;94821.47;10350624;28;20694;-29
2023/10/26 07:14:21;;;;;;;6.87;1.70;;;;;;;18.98;62.35;94826.59;10348332;28;20331;-30
2023/10/26 07:19:21;;;;;;;2.03;1.33;;;;;;;19.01;62.27;94837.50;10346243;28;20492;-28
2023/10/26 07:24:22;;;;;;;4.63;1.50;;;;;;;18.95;62.33;94830.09;10338027;28;20038;-28
2023/10/26 07:29:22;;;;;;;4.43;1.85;;;;;;;19.00;62.40;94856.13;10347022;28;20297;-28
2023/10/26 07:34:22;;;;;;;2.13;1.40;;;;;;;19.00;62.17;94856.13;10344721;28;20445;-31
2023/10/26 07:39:23;;;;;;;3.33;1.40;;;;;;;18.94;62.32;94837.75;10335937;28;20046;-28
2023/10/26 07:44:23;;;;;;;2.37;1.33;;;;;;;19.00;62.19;94827.41;10346961;28;20103;-28
2023/10/26 07:49:24;;;;;;;3.85;1.23;;;;;;;18.97;62.08;94841.00;10344499;28;20332;-30
2023/10/26 07:54:24;;;;;;;2.87;1.17;;;;;;;18.99;62.24;94849.41;10344736;28;20030;-31
2023/10/26 07:59:24;;;;;;;2.87;1.10;;;;;;;19.00;62.14;94845.16;10344223;28;20037;-28
2023/10/26 08:04:26;;;;;;;1.83;1.10;;;;;;;18.98;62.22;94837.59;10351359;28;20118;-30
2023/10/26 08:09:29;;;;;;;2.30;1.38;;;;;;;19.00;62.28;94829.94;10343908;28;20030;-28
2023/10/26 08:14:30;;;;;;;2.10;1.30;;;;;;;18.98;62.34;94831.69;10336360;28;20116;-29
2023/10/26 08:19:30;;;;;;;1.70;1.40;;;;;;;18.98;62.22;94839.28;10344003;28;20037;-29
2023/10/26 08:24:33;;;;;;;2.17;1.40;;;;;;;18.98;62.27;94862.13;10336057;28;20038;-29
2023/10/26 08:29:33;;;;;;;2.28;1.38;;;;;;;18.97;62.16;94860.47;10335366;28;20372;-27
2023/10/26 08:34:34;;;;;;;2.23;1.40;;;;;;;18.99;62.19;94889.97;10342591;28;20045;-28
2023/10/26 08:39:35;;;;;;;1.83;1.10;;;;;;;19.04;61.71;94865.31;10335525;28;20425;-28
2023/10/26 08:44:37;;;;;;;2.72;1.10;;;;;;;19.06;61.88;94895.66;10328372;28;20042;-28
2023/10/26 08:49:41;;;;;;;2.92;1.30;;;;;;;19.12;61.66;94900.56;10329487;28;20116;-30
2023/10/26 08:54:42;;;;;;;3.95;1.40;;;;;;;19.13;61.59;94905.59;10338132;28;20049;-28
2023/10/26 08:59:42;;;;;;;2.40;1.40;;;;;;;19.15;61.06;94908.06;10330830;28;20493;-28
2023/10/26 09:05:00;;;;;;;3.80;1.40;;;;;;;19.15;61.35;94926.66;10330271;28;20560;-29
2023/10/26 09:10:01;;;;;;;1.85;1.23;;;;;;;19.13;61.28;94922.50;10330083;28;20030;-28
2023/10/26 09:15:06;;;;;;;1.77;1.20;;;;;;;19.16;61.62;94942.72;10329495;28;20444;-28
2023/10/26 09:20:22;;;;;;;2.95;1.23;;;;;;;19.16;61.29;94953.69;10337625;28;20030;-32
2023/10/26 09:25:22;;;;;;;0.75;0.73;;;;;;;19.14;61.34;94964.75;10328461;28;20390;-29
2023/10/26 09:30:27;;;;;;;1.73;1.10;;;;;;;19.16;61.33;94975.69;10329445;28;20042;-28
2023/10/26 09:35:30;;;;;;;1.90;1.17;;;;;;;19.15;61.49;94971.47;10329197;28;20064;-28
2023/10/26 09:40:30;;;;;;;0.82;0.80;;;;;;;19.14;61.34;94963.06;10329052;28;20046;-28
2023/10/26 09:45:31;;;;;;;2.00;1.03;;;;;;;19.15;61.44;94961.34;10330333;28;20038;-29
2023/10/26 09:50:39;;;;;;;1.23;1.00;;;;;;;19.13;61.30;94946.19;10327398;28;20030;-30
2023/10/26 09:55:43;;;;;;;1.65;1.17;;;;;;;19.13;61.30;94955.47;10335668;28;20093;-28
2023/10/26 10:00:44;;;;;;;1.48;0.90;;;;;;;19.13;61.33;94973.25;10328282;28;20433;-28
2023/10/26 10:05:47;;;;;;;2.20;0.90;;;;;;;19.13;61.43;94969.00;10325449;28;20089;-28
2023/10/26 10:11:16;;;;;;;1.95;1.00;;;;;;;19.10;61.42;94958.13;10326952;28;20030;-29
2023/10/26 10:16:35;;;;;;;1.33;1.00;;;;;;;19.09;61.56;94971.69;10338919;28;20034;-28
2023/10/26 10:21:36;;;;;;;1.35;1.00;;;;;;;19.09;61.62;94956.47;10331503;28;20073;-29
2023/10/26 10:27:11;;;;;;;3.58;0.98;;;;;;;19.12;61.19;94964.81;10336936;28;20441;-30
2023/10/26 10:32:12;;;;;;;2.22;1.00;;;;;;;19.15;61.30;94967.25;10331905;28;20034;-28
2023/10/26 10:37:14;;;;;;;24.27;2.80;;;;;;;19.10;61.41;94950.50;10332721;28;20113;-27
2023/10/26 10:42:15;;;;;;;8.88;1.75;;;;;;;19.16;61.28;94958.75;10331105;28;20397;-28
2023/10/26 10:47:15;;;;;;;8.48;1.98;;;;;;;19.16;61.18;94958.75;10350037;28;20045;-29
2023/10/26 10:52:15;;;;;;;3.90;1.80;;;;;;;19.19;60.91;94960.41;10347291;28;20030;-28
2023/10/26 10:57:16;;;;;;;7.10;2.80;;;;;;;19.19;60.85;94932.50;10331950;28;20026;-29
2023/10/26 11:02:16;;;;;;;4.27;1.33;;;;;;;19.17;60.96;94908.88;10332240;28;20081;-27
2023/10/26 11:07:16;;;;;;;1.83;1.03;;;;;;;19.21;60.90;94896.06;10339498;28;20039;-28
2023/10/26 11:12:17;;;;;;;5.93;1.73;;;;;;;19.24;60.88;94890.06;10330428;28;20042;-29
2023/10/26 11:17:18;;;;;;;3.73;1.50;;;;;;;19.23;60.97;94875.72;10331542;28;20034;-29
2023/10/26 11:22:20;;;;;;;6.40;1.60;;;;;;;19.25;60.89;94874.78;10329797;28;20046;-28
2023/10/26 11:27:21;;;;;;;13.68;2.58;;;;;;;19.28;60.90;94879.78;10329881;28;20117;-28
2023/10/26 11:32:26;;;;;;;14.25;3.15;;;;;;;19.30;60.96;94864.50;10330004;28;20114;-29
2023/10/26 11:37:27;;;;;;;10.27;2.58;;;;;;;19.23;60.94;94857.94;10329689;28;20026;-28
2023/10/26 11:43:05;;;;;;;11.90;4.03;;;;;;;19.30;60.93;94844.19;10328871;28;20413;-28
2023/10/26 11:48:06;;;;;;;8.02;2.45;;;;;;;19.31;61.00;94835.69;10356529;28;20760;-28
2023/10/26 11:53:06;;;;;;;11.55;3.08;;;;;;;19.27;61.06;94829.09;10336918;28;20083;-27
2023/10/26 11:58:07;;;;;;;7.03;2.50;;;;;;;19.26;61.07;94837.56;10333965;28;20038;-28
2023/10/26 12:03:07;;;;;;;11.80;3.47;;;;;;;19.24;61.05;94819.84;10328421;28;20493;-28
2023/10/26 12:08:08;;;;;;;10.15;3.13;;;;;;;19.26;60.85;94819.81;10329338;28;20500;-28
2023/10/26 12:13:09;;;;;;;8.05;3.40;;;;;;;19.24;61.02;94799.56;10329487;28;20038;-28
2023/10/26 12:18:09;;;;;;;7.00;2.90;;;;;;;19.24;61.29;94824.13;10327640;28;20403;-28
2023/10/26 12:23:09;;;;;;;4.97;2.53;;;;;;;19.23;60.94;94808.06;10329591;28;20567;-28
2023/10/26 12:28:10;;;;;;;4.80;2.33;;;;;;;19.23;60.99;94817.34;10328694;28;20049;-27
2023/10/26 12:33:10;;;;;;;3.93;2.37;;;;;;;19.21;60.96;94809.81;10327119;28;20444;-29
2023/10/26 12:38:11;;;;;;;5.70;2.53;;;;;;;19.21;60.83;94798.84;10327552;28;20037;-33
2023/10/26 12:43:11;;;;;;;7.03;2.13;;;;;;;19.19;60.93;94791.25;10327424;28;20038;-28
2023/10/26 12:48:11;;;;;;;6.17;2.30;;;;;;;19.20;60.94;94784.50;10334886;28;20026;-28
2023/10/26 12:53:12;;;;;;;4.73;2.27;;;;;;;19.20;60.92;94781.97;10328753;28;20037;-28
2023/10/26 12:58:13;;;;;;;6.63;2.15;;;;;;;19.20;60.77;94792.09;10328097;28;20092;-28
2023/10/26 13:03:13;;;;;;;3.93;1.90;;;;;;;19.20;61.16;94787.03;10326584;28;20040;-28
2023/10/26 13:08:13;;;;;;;5.47;2.57;;;;;;;19.19;60.89;94780.31;10328008;28;20295;-28
2023/10/26 13:13:14;;;;;;;5.10;1.90;;;;;;;19.18;60.82;94784.50;10339530;28;20029;-29
2023/10/26 13:18:14;;;;;;;5.33;2.30;;;;;;;19.17;61.07;94787.13;10330741;28;20065;-28
2023/10/26 13:23:14;;;;;;;3.70;1.90;;;;;;;19.13;60.71;94788.06;10328339;28;20428;-28
2023/10/26 13:28:15;;;;;;;3.47;1.93;;;;;;;19.19;60.82;94803.13;10326378;28;20436;-28
2023/10/26 13:33:15;;;;;;;5.07;1.60;;;;;;;19.15;61.30;94806.59;10332544;28;20026;-27
2023/10/26 13:38:16;;;;;;;4.30;2.20;;;;;;;19.12;60.99;94801.63;10327276;28;20409;-28
2023/10/26 13:43:19;;;;;;;4.40;1.67;;;;;;;19.14;61.26;94807.50;10326961;28;20176;-28
2023/10/26 13:48:19;;;;;;;5.10;1.70;;;;;;;19.17;60.99;94822.63;10332477;28;20286;-29
2023/10/26 13:53:19;;;;;;;7.07;1.90;;;;;;;19.12;61.76;94819.41;10335519;28;20030;-28
2023/10/26 13:58:20;;;;;;;6.57;1.80;;;;;;;19.17;61.40;94823.44;10337802;28;20037;-29
2023/10/26 14:03:20;;;;;;;6.07;2.10;;;;;;;19.17;61.46;94827.69;10337390;28;20042;-29
2023/10/26 14:08:20;;;;;;;2.53;1.30;;;;;;;19.20;61.41;94832.69;10335014;28;20049;-29
2023/10/26 14:13:21;;;;;;;7.33;2.07;;;;;;;19.23;61.98;94842.72;10341143;28;20759;-29
2023/10/26 14:18:21;;;;;;;3.07;1.60;;;;;;;19.29;62.14;94832.38;10336932;28;20062;-28
2023/10/26 14:23:22;;;;;;;3.50;1.83;;;;;;;19.35;62.08;94827.94;10340445;28;20034;-31
2023/10/26 14:28:22;;;;;;;3.60;1.85;;;;;;;19.41;61.82;94826.94;10333527;28;20128;-29
2023/10/26 14:33:23;;;;;;;3.87;1.80;;;;;;;19.47;61.69;94829.22;10335761;28;20038;-28
2023/10/26 14:38:23;;;;;;;5.63;1.58;;;;;;;19.50;61.61;94812.19;10336671;28;20497;-28
2023/10/26 14:43:24;;;;;;;6.67;1.80;;;;;;;19.54;61.69;94805.31;10334333;28;20034;-28
2023/10/26 14:48:25;;;;;;;2.85;1.50;;;;;;;19.61;61.69;94820.25;10335477;28;20038;-28
2023/10/26 14:53:25;;;;;;;5.10;1.87;;;;;;;19.66;61.27;94820.13;10342311;28;20034;-29
2023/10/26 14:58:25;;;;;;;2.88;1.63;;;;;;;19.69;61.39;94822.56;10331303;28;20112;-28
2023/10/26 15:03:26;;;;;;;5.20;1.40;;;;;;;19.72;60.89;94807.19;10331003;28;20088;-28
2023/10/26 15:08:26;;;;;;;4.80;1.10;;;;;;;19.62;61.27;94816.03;10333813;28;20038;-30
2023/10/26 15:13:26;;;;;;;5.40;1.47;;;;;;;19.62;60.92;94813.50;10337493;28;20030;-28
2023/10/26 15:18:27;;;;;;;2.50;1.33;;;;;;;19.60;61.26;94827.94;10338056;28;20092;-29
2023/10/26 15:23:27;;;;;;;7.97;2.35;;;;;;;19.58;61.16;94829.72;10337986;28;20034;-28
2023/10/26 15:28:28;;;;;;;8.63;2.70;;;;;;;19.55;61.70;94819.66;10349991;28;20042;-28
2023/10/26 15:33:29;;;;;;;6.83;2.50;;;;;;;19.54;61.38;94802.78;10329547;28;20037;-29
2023/10/26 15:38:29;;;;;;;11.73;3.40;;;;;;;19.51;61.51;94798.63;10344467;28;20019;-29
2023/10/26 15:43:33;;;;;;;9.00;2.70;;;;;;;19.50;61.54;94806.31;10337939;28;20038;-28
2023/10/26 15:48:34;;;;;;;5.90;2.30;;;;;;;19.50;61.72;94811.38;10328522;28;20030;-28
2023/10/26 15:53:34;;;;;;;9.68;2.60;;;;;;;19.50;61.71;94811.38;10328807;28;20030;-28
2023/10/26 15:58:35;;;;;;;11.57;2.53;;;;;;;19.50;61.79;94821.53;10331702;28;20444;-28
2023/10/26 16:03:35;;;;;;;5.03;2.77;;;;;;;19.48;61.92;94815.66;10328639;28;20269;-29
2023/10/26 16:08:37;;;;;;;7.63;2.33;;;;;;;19.43;61.75;94815.00;10333958;28;20289;-29
2023/10/26 16:13:37;;;;;;;7.72;2.15;;;;;;;19.38;62.57;94816.84;10336187;28;20033;-29
2023/10/26 16:18:38;;;;;;;5.13;2.20;;;;;;;19.37;63.05;94810.97;10333974;28;20538;-30
2023/10/26 16:23:38;;;;;;;6.78;3.22;;;;;;;19.36;63.39;94814.41;10344776;28;20042;-28
2023/10/26 16:28:39;;;;;;;8.27;2.70;;;;;;;19.36;63.53;94811.84;10339578;28;20034;-28
2023/10/26 16:33:39;;;;;;;5.90;2.60;;;;;;;19.36;63.54;94816.94;10343641;28;20065;-29
2023/10/26 16:38:40;;;;;;;8.27;2.55;;;;;;;19.35;63.78;94819.50;10343830;28;20707;-29
2023/10/26 16:43:40;;;;;;;8.40;2.87;;;;;;;19.34;63.84;94835.63;10341386;28;20492;-29
2023/10/26 16:48:42;;;;;;;5.67;2.83;;;;;;;19.34;63.50;94831.34;10339294;28;20034;-29
2023/10/26 16:53:45;;;;;;;8.02;3.47;;;;;;;19.37;64.08;94835.50;10343969;28;20375;-28
2023/10/26 16:58:45;;;;;;;4.97;2.85;;;;;;;19.32;64.05;94824.66;10335089;28;20026;-28
2023/10/26 17:03:46;;;;;;;10.83;4.07;;;;;;;19.32;64.71;94824.66;10328990;28;20556;-28
2023/10/26 17:08:47;;;;;;;6.25;3.28;;;;;;;19.31;64.81;94821.31;10334682;28;20034;-29
2023/10/26 17:13:48;;;;;;;9.52;4.25;;;;;;;19.34;65.21;94820.41;10329161;28;20404;-28
2023/10/26 17:18:48;;;;;;;7.10;3.60;;;;;;;19.34;64.60;94816.13;10342198;28;20041;-28
2023/10/26 17:23:49;;;;;;;7.03;3.37;;;;;;;19.32;65.21;94814.50;10340438;28;20113;-28
2023/10/26 17:28:49;;;;;;;6.35;3.88;;;;;;;19.29;64.40;94807.88;10336221;28;20034;-29
2023/10/26 17:33:50;;;;;;;4.45;3.20;;;;;;;19.34;64.55;94812.78;10350787;28;20042;-29
2023/10/26 17:38:50;;;;;;;7.37;4.13;;;;;;;19.29;64.50;94804.47;10342394;28;20040;-29
2023/10/26 17:43:50;;;;;;;5.03;3.20;;;;;;;19.32;65.04;94806.91;10346460;28;20312;-29
2023/10/26 17:48:51;;;;;;;7.05;3.78;;;;;;;19.32;64.74;94811.97;10342765;28;20081;-29
2023/10/26 17:53:53;;;;;;;7.32;3.10;;;;;;;19.32;64.70;94804.38;10340045;28;20547;-29
2023/10/26 17:58:53;;;;;;;6.50;3.70;;;;;;;19.31;65.05;94802.72;10339064;28;20499;-28
2023/10/26 18:03:54;;;;;;;7.20;4.47;;;;;;;19.32;65.78;94789.16;10342801;28;20034;-29
2023/10/26 18:08:54;;;;;;;10.97;4.07;;;;;;;19.32;66.34;94786.59;10353865;28;20108;-28
2023/10/26 18:13:54;;;;;;;5.60;3.60;;;;;;;19.31;66.13;94790.03;10343646;28;20179;-28
2023/10/26 18:18:56;;;;;;;7.20;3.87;;;;;;;19.32;65.52;94776.47;10357979;28;20037;-29
2023/10/26 18:23:57;;;;;;;8.15;4.00;;;;;;;19.34;65.04;94785.69;10349726;28;20041;-29
2023/10/26 18:28:57;;;;;;;6.73;3.80;;;;;;;19.32;65.16;94767.16;10354746;28;20590;-28
2023/10/26 18:33:58;;;;;;;8.80;3.60;;;;;;;19.31;65.28;94762.97;10354452;28;20038;-28
2023/10/26 18:38:58;;;;;;;5.87;3.30;;;;;;;19.35;64.93;94772.09;10343861;28;20049;-28
2023/10/26 18:43:59;;;;;;;7.40;3.80;;;;;;;19.34;65.03;94767.09;10330444;28;20297;-29
2023/10/26 18:48:59;;;;;;;7.55;3.88;;;;;;;19.34;64.76;94772.19;10329424;28;20042;-28
2023/10/26 18:53:59;;;;;;;7.87;3.60;;;;;;;19.33;64.42;94760.38;10327078;28;20077;-28
2023/10/26 18:59:00;;;;;;;9.00;3.63;;;;;;;19.33;64.53;94763.72;10338284;28;20037;-29
2023/10/26 19:04:00;;;;;;;4.90;3.10;;;;;;;19.25;63.83;94744.59;10337914;28;20040;-28
2023/10/26 19:09:00;;;;;;;5.13;3.53;;;;;;;19.32;63.64;94761.25;10335167;28;20505;-29
2023/10/26 19:14:01;;;;;;;5.77;3.50;;;;;;;19.31;63.61;94754.50;10335120;28;20069;-28
2023/10/26 19:19:01;;;;;;;8.23;2.87;;;;;;;19.46;64.68;94754.00;10341997;28;20030;-29
2023/10/26 19:24:02;;;;;;;3.77;2.93;;;;;;;19.33;64.00;94740.91;10326491;28;20814;-29
2023/10/26 19:29:02;;;;;;;8.02;2.92;;;;;;;19.25;64.81;94734.44;10334252;28;20290;-28
2023/10/26 19:34:02;;;;;;;3.80;2.63;;;;;;;19.27;64.47;94742.81;10326082;28;20104;-29
2023/10/26 19:39:06;;;;;;;3.65;2.05;;;;;;;19.25;64.20;94742.06;10329525;28;20038;-30
2023/10/26 19:44:09;;;;;;;4.25;2.53;;;;;;;19.24;64.51;94737.88;10326923;28;20030;-28
2023/10/26 19:49:09;;;;;;;4.88;3.13;;;;;;;19.27;64.04;94738.56;10324943;28;20512;-29
2023/10/26 19:54:13;;;;;;;5.00;2.50;;;;;;;19.28;63.81;94730.09;10334782;28;20034;-30
2023/10/26 19:59:14;;;;;;;5.15;2.75;;;;;;;19.28;64.12;94721.66;10325102;28;20117;-29
2023/10/26 20:04:14;;;;;;;5.10;2.83;;;;;;;19.28;63.89;94697.13;10324627;28;20042;-30
2023/10/26 20:09:15;;;;;;;13.10;3.67;;;;;;;19.28;63.69;94703.88;10332679;28;20038;-28
2023/10/26 20:14:18;;;;;;;4.97;3.15;;;;;;;19.28;63.96;94689.50;10327883;28;20286;-28
2023/10/26 20:19:19;;;;;;;2.95;2.47;;;;;;;19.25;63.79;94686.25;10323616;28;20077;-29
2023/10/26 20:24:23;;;;;;;4.68;2.75;;;;;;;19.28;63.58;94686.13;10332359;28;20133;-30
2023/10/26 20:29:24;;;;;;;8.00;3.35;;;;;;;19.27;63.86;94681.94;10330055;28;20108;-29
2023/10/26 20:34:24;;;;;;;3.40;2.88;;;;;;;19.26;63.56;94670.94;10323833;28;20192;-29
2023/10/26 20:39:25;;;;;;;4.50;2.20;;;;;;;19.26;63.32;94665.88;10328300;28;20046;-29
2023/10/26 20:44:25;;;;;;;7.53;3.10;;;;;;;19.27;63.92;94661.66;10331048;28;20045;-29
2023/10/26 20:49:25;;;;;;;3.57;2.50;;;;;;;19.30;63.80;94661.53;10326749;28;20377;-28
2023/10/26 20:54:26;;;;;;;5.20;2.87;;;;;;;19.29;63.62;94652.25;10326715;28;20297;-29
2023/10/26 20:59:27;;;;;;;6.28;2.47;;;;;;;19.29;63.46;94654.81;10333877;28;20297;-28
2023/10/26 21:04:27;;;;;;;4.88;2.42;;;;;;;19.31;63.06;94645.41;10335842;28;20027;-30
2023/10/26 21:09:28;;;;;;;5.20;2.37;;;;;;;19.31;63.26;94632.72;10334147;28;20030;-31
2023/10/26 21:14:29;;;;;;;3.97;1.97;;;;;;;19.29;63.59;94630.28;10327787;28;20046;-28
2023/10/26 21:19:29;;;;;;;4.13;2.25;;;;;;;19.29;64.11;94620.13;10334133;28;20054;-29
2023/10/26 21:24:30;;;;;;;4.63;2.33;;;;;;;19.27;64.29;94610.91;10333853;28;20031;-28
2023/10/26 21:29:30;;;;;;;4.63;2.28;;;;;;;19.28;63.89;94604.94;10325165;28;20819;-28
2023/10/26 21:34:32;;;;;;;8.43;2.67;;;;;;;19.26;64.35;94614.34;10323957;28;20117;-28
2023/10/26 21:39:32;;;;;;;4.40;2.03;;;;;;;19.23;63.92;94591.59;10325652;28;20045;-29
2023/10/26 21:44:32;;;;;;;3.93;2.20;;;;;;;19.30;63.83;94590.50;10334378;28;20409;-28
2023/10/26 21:49:33;;;;;;;3.77;2.17;;;;;;;19.32;63.40;94593.78;10325808;28;20111;-28
2023/10/26 21:54:33;;;;;;;5.63;1.93;;;;;;;19.31;63.60;94592.97;10326297;28;20038;-28
2023/10/26 21:59:34;;;;;;;4.53;2.13;;;;;;;19.30;63.36;94588.78;10326222;28;20320;-28
2023/10/26 22:04:34;;;;;;;4.87;2.00;;;;;;;19.31;63.61;94592.13;10341553;28;20404;-28
2023/10/26 22:09:34;;;;;;;5.57;2.30;;;;;;;19.31;63.70;94592.97;10340799;28;20048;-29
2023/10/26 22:14:35;;;;;;;5.50;1.70;;;;;;;19.28;63.85;94602.41;10333550;28;20046;-29
2023/10/26 22:19:36;;;;;;;6.47;2.13;;;;;;;19.29;63.54;94588.84;10340753;28;20038;-29
2023/10/26 22:24:36;;;;;;;4.43;2.13;;;;;;;19.29;63.31;94599.00;10333278;28;20297;-28
2023/10/26 22:29:37;;;;;;;5.80;1.87;;;;;;;19.27;63.63;94596.50;10357163;28;20038;-28
2023/10/26 22:34:37;;;;;;;6.97;2.30;;;;;;;19.27;63.69;94603.31;10340246;28;20420;-29
2023/10/26 22:39:37;;;;;;;6.70;2.13;;;;;;;19.24;63.86;94606.78;10340427;28;20308;-28
2023/10/26 22:44:38;;;;;;;5.90;1.73;;;;;;;19.25;63.44;94612.69;10331914;28;20129;-29
2023/10/26 22:49:39;;;;;;;6.07;1.80;;;;;;;19.26;63.63;94614.34;10331277;28;20034;-29
2023/10/26 22:54:39;;;;;;;3.40;1.38;;;;;;;19.24;63.35;94606.78;10332039;28;20040;-28
2023/10/26 22:59:39;;;;;;;3.20;1.33;;;;;;;19.24;63.44;94611.03;10332031;28;20038;-28
2023/10/26 23:04:42;;;;;;;5.17;2.10;;;;;;;19.22;63.50;94615.31;10331201;28;20042;-29
2023/10/26 23:09:42;;;;;;;3.92;1.38;;;;;;;19.18;63.68;94611.22;10330504;28;20030;-27
2023/10/26 23:14:42;;;;;;;3.73;1.80;;;;;;;19.19;63.74;94612.91;10332095;28;20042;-28
2023/10/26 23:19:43;;;;;;;4.03;1.77;;;;;;;19.20;63.56;94612.00;10329697;28;20297;-27